sensor_id;sensor_type;location;lat;lon;timestamp;temperature;humidity
2763;DHT22;1389;51.490;7.338;2023-08-30T00:00:58;16.00;92.50
2763;DHT22;1389;51.490;7.338;2023-08-30T00:03:24;16.00;92.50
2763;DHT22;1389;51.490;7.338;2023-08-30T00:05:50;16.00;92.60
2763;DHT22;1389;51.490;7.338;2023-08-30T00:10:45;15.80;92.80
2763;DHT22;1389;51.490;7.338;2023-08-30T00:13:11;15.70;93.10
2763;DHT22;1389;51.490;7.338;2023-08-30T00:15:37;15.70;93.10
2763;DHT22;1389;51.490;7.338;2023-08-30T00:18:04;15.80;93.80
2763;DHT22;1389;51.490;7.338;2023-08-30T00:20:30;15.70;93.90
2763;DHT22;1389;51.490;7.338;2023-08-30T00:22:56;15.70;93.40
2763;DHT22;1389;51.490;7.338;2023-08-30T00:25:22;15.70;93.10
2763;DHT22;1389;51.490;7.338;2023-08-30T00:27:48;15.70;93.10
2763;DHT22;1389;51.490;7.338;2023-08-30T00:30:14;15.60;93.20
2763;DHT22;1389;51.490;7.338;2023-08-30T00:32:41;15.60;93.20
2763;DHT22;1389;51.490;7.338;2023-08-30T00:35:07;15.50;93.40
2763;DHT22;1389;51.490;7.338;2023-08-30T00:37:33;15.50;93.80
2763;DHT22;1389;51.490;7.338;2023-08-30T00:39:59;15.50;93.90
2763;DHT22;1389;51.490;7.338;2023-08-30T00:42:26;15.40;93.60
2763;DHT22;1389;51.490;7.338;2023-08-30T00:44:53;15.40;93.60
2763;DHT22;1389;51.490;7.338;2023-08-30T00:47:19;15.30;93.60
2763;DHT22;1389;51.490;7.338;2023-08-30T00:49:49;15.30;93.60
2763;DHT22;1389;51.490;7.338;2023-08-30T00:52:15;15.20;93.90
2763;DHT22;1389;51.490;7.338;2023-08-30T00:57:08;15.10;94.00
2763;DHT22;1389;51.490;7.338;2023-08-30T00:59:35;15.10;93.90
2763;DHT22;1389;51.490;7.338;2023-08-30T01:02:01;15.10;93.80
2763;DHT22;1389;51.490;7.338;2023-08-30T01:04:28;15.00;93.90
2763;DHT22;1389;51.490;7.338;2023-08-30T01:09:21;15.00;93.90
2763;DHT22;1389;51.490;7.338;2023-08-30T01:12:40;14.90;93.90
2763;DHT22;1389;51.490;7.338;2023-08-30T01:15:19;14.90;94.20
2763;DHT22;1389;51.490;7.338;2023-08-30T01:17:47;14.90;94.40
2763;DHT22;1389;51.490;7.338;2023-08-30T01:20:15;14.90;94.40
2763;DHT22;1389;51.490;7.338;2023-08-30T01:23:01;14.90;94.90
2763;DHT22;1389;51.490;7.338;2023-08-30T01:28:28;14.80;94.30
2763;DHT22;1389;51.490;7.338;2023-08-30T01:30:55;14.80;94.50
2763;DHT22;1389;51.490;7.338;2023-08-30T01:33:23;14.80;94.80
2763;DHT22;1389;51.490;7.338;2023-08-30T01:35:50;14.80;94.80
2763;DHT22;1389;51.490;7.338;2023-08-30T01:38:17;14.80;94.60
2763;DHT22;1389;51.490;7.338;2023-08-30T01:43:11;14.80;94.00
2763;DHT22;1389;51.490;7.338;2023-08-30T01:45:41;14.80;94.70
2763;DHT22;1389;51.490;7.338;2023-08-30T01:48:09;14.80;94.70
2763;DHT22;1389;51.490;7.338;2023-08-30T01:50:38;14.80;94.00
2763;DHT22;1389;51.490;7.338;2023-08-30T01:53:05;14.90;94.40
2763;DHT22;1389;51.490;7.338;2023-08-30T01:55:32;14.90;94.40
2763;DHT22;1389;51.490;7.338;2023-08-30T01:57:58;14.80;93.90
2763;DHT22;1389;51.490;7.338;2023-08-30T02:00:24;14.80;94.00
2763;DHT22;1389;51.490;7.338;2023-08-30T02:02:51;14.70;94.20
2763;DHT22;1389;51.490;7.338;2023-08-30T02:05:17;14.70;94.30
2763;DHT22;1389;51.490;7.338;2023-08-30T02:10:15;14.70;93.60
2763;DHT22;1389;51.490;7.338;2023-08-30T02:12:48;14.60;94.00
2763;DHT22;1389;51.490;7.338;2023-08-30T02:15:16;14.70;93.90
2763;DHT22;1389;51.490;7.338;2023-08-30T02:17:42;14.60;94.20
2763;DHT22;1389;51.490;7.338;2023-08-30T02:20:09;14.60;94.10
2763;DHT22;1389;51.490;7.338;2023-08-30T02:22:36;14.60;94.50
2763;DHT22;1389;51.490;7.338;2023-08-30T02:25:02;14.60;94.60
2763;DHT22;1389;51.490;7.338;2023-08-30T02:27:33;14.50;94.90
2763;DHT22;1389;51.490;7.338;2023-08-30T02:32:25;14.60;95.00
2763;DHT22;1389;51.490;7.338;2023-08-30T02:34:52;14.60;94.80
2763;DHT22;1389;51.490;7.338;2023-08-30T02:37:19;14.60;94.80
2763;DHT22;1389;51.490;7.338;2023-08-30T02:39:45;14.50;95.10
2763;DHT22;1389;51.490;7.338;2023-08-30T02:42:11;14.60;95.20
2763;DHT22;1389;51.490;7.338;2023-08-30T02:44:37;14.50;95.00
2763;DHT22;1389;51.490;7.338;2023-08-30T02:47:03;14.50;95.10
2763;DHT22;1389;51.490;7.338;2023-08-30T02:49:29;14.50;95.20
2763;DHT22;1389;51.490;7.338;2023-08-30T02:51:55;14.50;95.20
2763;DHT22;1389;51.490;7.338;2023-08-30T02:54:22;14.50;94.90
2763;DHT22;1389;51.490;7.338;2023-08-30T02:56:48;14.50;94.90
2763;DHT22;1389;51.490;7.338;2023-08-30T02:59:14;14.50;94.90
2763;DHT22;1389;51.490;7.338;2023-08-30T03:04:07;14.50;94.50
2763;DHT22;1389;51.490;7.338;2023-08-30T03:06:34;14.40;94.50
2763;DHT22;1389;51.490;7.338;2023-08-30T03:09:01;14.40;94.90
2763;DHT22;1389;51.490;7.338;2023-08-30T03:11:28;14.40;95.00
2763;DHT22;1389;51.490;7.338;2023-08-30T03:13:55;14.40;94.80
2763;DHT22;1389;51.490;7.338;2023-08-30T03:16:21;14.40;94.80
2763;DHT22;1389;51.490;7.338;2023-08-30T03:18:48;14.40;94.60
2763;DHT22;1389;51.490;7.338;2023-08-30T03:21:14;14.30;94.20
2763;DHT22;1389;51.490;7.338;2023-08-30T03:23:44;14.30;94.50
2763;DHT22;1389;51.490;7.338;2023-08-30T03:26:15;14.30;94.40
2763;DHT22;1389;51.490;7.338;2023-08-30T03:28:42;14.20;94.10
2763;DHT22;1389;51.490;7.338;2023-08-30T03:31:16;14.10;94.20
2763;DHT22;1389;51.490;7.338;2023-08-30T03:33:43;14.00;94.50
2763;DHT22;1389;51.490;7.338;2023-08-30T03:36:14;14.00;94.70
2763;DHT22;1389;51.490;7.338;2023-08-30T03:38:41;13.90;94.80
2763;DHT22;1389;51.490;7.338;2023-08-30T03:41:08;13.90;95.40
2763;DHT22;1389;51.490;7.338;2023-08-30T03:43:34;13.80;95.30
2763;DHT22;1389;51.490;7.338;2023-08-30T03:46:01;13.80;95.30
2763;DHT22;1389;51.490;7.338;2023-08-30T03:48:29;13.80;95.40
2763;DHT22;1389;51.490;7.338;2023-08-30T03:50:55;13.80;96.10
2763;DHT22;1389;51.490;7.338;2023-08-30T03:53:22;13.80;96.20
2763;DHT22;1389;51.490;7.338;2023-08-30T03:55:49;13.80;95.60
2763;DHT22;1389;51.490;7.338;2023-08-30T03:58:16;13.80;95.60
2763;DHT22;1389;51.490;7.338;2023-08-30T04:00:42;13.80;95.50
2763;DHT22;1389;51.490;7.338;2023-08-30T04:03:09;13.80;95.40
2763;DHT22;1389;51.490;7.338;2023-08-30T04:05:36;13.70;95.20
2763;DHT22;1389;51.490;7.338;2023-08-30T04:08:03;13.70;95.00
2763;DHT22;1389;51.490;7.338;2023-08-30T04:10:34;13.70;95.00
2763;DHT22;1389;51.490;7.338;2023-08-30T04:13:00;13.60;95.30
2763;DHT22;1389;51.490;7.338;2023-08-30T04:15:26;13.60;95.50
2763;DHT22;1389;51.490;7.338;2023-08-30T04:17:52;13.60;95.60
2763;DHT22;1389;51.490;7.338;2023-08-30T04:20:18;13.50;95.70
2763;DHT22;1389;51.490;7.338;2023-08-30T04:25:10;13.50;95.70
2763;DHT22;1389;51.490;7.338;2023-08-30T04:27:39;13.50;95.70
2763;DHT22;1389;51.490;7.338;2023-08-30T04:30:16;13.40;95.80
2763;DHT22;1389;51.490;7.338;2023-08-30T04:35:09;13.40;96.10
2763;DHT22;1389;51.490;7.338;2023-08-30T04:37:35;13.40;96.20
2763;DHT22;1389;51.490;7.338;2023-08-30T04:40:01;13.50;96.10
2763;DHT22;1389;51.490;7.338;2023-08-30T04:42:29;13.50;95.80
2763;DHT22;1389;51.490;7.338;2023-08-30T04:44:55;13.50;95.80
2763;DHT22;1389;51.490;7.338;2023-08-30T04:47:22;13.50;95.70
2763;DHT22;1389;51.490;7.338;2023-08-30T04:49:51;13.40;95.80
2763;DHT22;1389;51.490;7.338;2023-08-30T04:54:44;13.50;95.70
2763;DHT22;1389;51.490;7.338;2023-08-30T04:59:45;13.50;95.90
2763;DHT22;1389;51.490;7.338;2023-08-30T05:02:11;13.50;96.00
2763;DHT22;1389;51.490;7.338;2023-08-30T05:04:58;13.50;96.10
2763;DHT22;1389;51.490;7.338;2023-08-30T05:12:41;13.60;96.00
2763;DHT22;1389;51.490;7.338;2023-08-30T05:23:46;13.60;96.00
2763;DHT22;1389;51.490;7.338;2023-08-30T05:34:35;13.70;96.20
2763;DHT22;1389;51.490;7.338;2023-08-30T05:39:29;13.80;96.10
2763;DHT22;1389;51.490;7.338;2023-08-30T05:41:55;13.80;96.10
2763;DHT22;1389;51.490;7.338;2023-08-30T05:44:24;13.90;96.00
2763;DHT22;1389;51.490;7.338;2023-08-30T05:46:55;13.90;95.90
2763;DHT22;1389;51.490;7.338;2023-08-30T05:49:23;13.90;96.00
2763;DHT22;1389;51.490;7.338;2023-08-30T05:51:51;13.90;96.00
2763;DHT22;1389;51.490;7.338;2023-08-30T06:04:03;14.10;96.40
2763;DHT22;1389;51.490;7.338;2023-08-30T06:06:42;14.10;96.20
2763;DHT22;1389;51.490;7.338;2023-08-30T06:14:07;14.20;96.70
2763;DHT22;1389;51.490;7.338;2023-08-30T06:16:33;14.20;96.70
2763;DHT22;1389;51.490;7.338;2023-08-30T06:19:00;14.30;96.40
2763;DHT22;1389;51.490;7.338;2023-08-30T06:21:26;14.40;96.40
2763;DHT22;1389;51.490;7.338;2023-08-30T06:23:52;14.40;96.70
2763;DHT22;1389;51.490;7.338;2023-08-30T06:26:18;14.50;96.70
2763;DHT22;1389;51.490;7.338;2023-08-30T06:28:44;14.50;96.70
2763;DHT22;1389;51.490;7.338;2023-08-30T06:36:05;14.60;96.30
2763;DHT22;1389;51.490;7.338;2023-08-30T06:40:58;14.70;96.60
2763;DHT22;1389;51.490;7.338;2023-08-30T06:43:26;14.70;96.70
2763;DHT22;1389;51.490;7.338;2023-08-30T06:48:19;15.00;96.50
2763;DHT22;1389;51.490;7.338;2023-08-30T06:58:04;15.10;95.90
2763;DHT22;1389;51.490;7.338;2023-08-30T07:00:30;15.10;95.60
2763;DHT22;1389;51.490;7.338;2023-08-30T07:02:57;15.20;95.70
2763;DHT22;1389;51.490;7.338;2023-08-30T07:05:23;15.30;96.10
2763;DHT22;1389;51.490;7.338;2023-08-30T07:07:49;15.30;96.10
2763;DHT22;1389;51.490;7.338;2023-08-30T07:10:15;15.40;95.60
2763;DHT22;1389;51.490;7.338;2023-08-30T07:12:42;15.60;95.70
2763;DHT22;1389;51.490;7.338;2023-08-30T07:15:08;15.70;95.40
2763;DHT22;1389;51.490;7.338;2023-08-30T07:17:34;15.80;95.40
2763;DHT22;1389;51.490;7.338;2023-08-30T07:20:01;15.80;95.10
2763;DHT22;1389;51.490;7.338;2023-08-30T07:22:29;16.00;94.50
2763;DHT22;1389;51.490;7.338;2023-08-30T07:24:55;16.00;94.70
2763;DHT22;1389;51.490;7.338;2023-08-30T07:27:21;16.10;94.80
2763;DHT22;1389;51.490;7.338;2023-08-30T07:32:14;16.30;94.60
2763;DHT22;1389;51.490;7.338;2023-08-30T07:34:40;16.40;93.90
2763;DHT22;1389;51.490;7.338;2023-08-30T07:37:19;16.50;93.40
2763;DHT22;1389;51.490;7.338;2023-08-30T07:39:46;16.60;92.60
2763;DHT22;1389;51.490;7.338;2023-08-30T07:42:13;16.60;92.50
2763;DHT22;1389;51.490;7.338;2023-08-30T07:44:39;16.70;93.00
2763;DHT22;1389;51.490;7.338;2023-08-30T07:47:05;16.70;93.00
2763;DHT22;1389;51.490;7.338;2023-08-30T07:49:31;16.70;92.00
2763;DHT22;1389;51.490;7.338;2023-08-30T07:51:57;16.80;92.30
2763;DHT22;1389;51.490;7.338;2023-08-30T07:54:23;16.90;91.80
2763;DHT22;1389;51.490;7.338;2023-08-30T07:56:49;17.00;91.00
2763;DHT22;1389;51.490;7.338;2023-08-30T07:59:16;17.00;91.30
2763;DHT22;1389;51.490;7.338;2023-08-30T08:01:42;17.00;90.40
2763;DHT22;1389;51.490;7.338;2023-08-30T08:04:08;17.10;90.80
2763;DHT22;1389;51.490;7.338;2023-08-30T08:09:00;17.20;89.60
2763;DHT22;1389;51.490;7.338;2023-08-30T08:11:26;17.20;89.80
2763;DHT22;1389;51.490;7.338;2023-08-30T08:16:19;17.50;87.50
2763;DHT22;1389;51.490;7.338;2023-08-30T08:18:46;17.60;88.30
2763;DHT22;1389;51.490;7.338;2023-08-30T08:23:38;17.70;86.40
2763;DHT22;1389;51.490;7.338;2023-08-30T08:26:04;17.80;87.80
2763;DHT22;1389;51.490;7.338;2023-08-30T08:28:31;17.80;87.00
2763;DHT22;1389;51.490;7.338;2023-08-30T08:30:57;17.90;85.00
2763;DHT22;1389;51.490;7.338;2023-08-30T08:35:50;18.10;85.00
2763;DHT22;1389;51.490;7.338;2023-08-30T08:38:16;18.10;83.90
2763;DHT22;1389;51.490;7.338;2023-08-30T08:40:42;18.10;82.40
2763;DHT22;1389;51.490;7.338;2023-08-30T08:43:11;18.10;81.60
2763;DHT22;1389;51.490;7.338;2023-08-30T08:45:38;18.10;83.10
2763;DHT22;1389;51.490;7.338;2023-08-30T08:48:05;18.10;81.80
2763;DHT22;1389;51.490;7.338;2023-08-30T08:50:32;18.20;80.70
2763;DHT22;1389;51.490;7.338;2023-08-30T08:53:00;18.50;81.50
2763;DHT22;1389;51.490;7.338;2023-08-30T08:55:28;18.50;79.20
2763;DHT22;1389;51.490;7.338;2023-08-30T08:57:59;18.70;80.30
2763;DHT22;1389;51.490;7.338;2023-08-30T09:00:26;18.80;79.80
2763;DHT22;1389;51.490;7.338;2023-08-30T09:02:53;18.90;77.30
2763;DHT22;1389;51.490;7.338;2023-08-30T09:05:20;19.00;79.30
2763;DHT22;1389;51.490;7.338;2023-08-30T09:07:47;19.10;75.20
2763;DHT22;1389;51.490;7.338;2023-08-30T09:10:13;19.10;75.30
2763;DHT22;1389;51.490;7.338;2023-08-30T09:12:39;19.20;71.00
2763;DHT22;1389;51.490;7.338;2023-08-30T09:15:05;19.30;70.30
2763;DHT22;1389;51.490;7.338;2023-08-30T09:17:39;19.20;69.50
2763;DHT22;1389;51.490;7.338;2023-08-30T09:20:10;19.20;70.70
2763;DHT22;1389;51.490;7.338;2023-08-30T09:22:40;19.20;71.30
2763;DHT22;1389;51.490;7.338;2023-08-30T09:25:08;19.30;70.00
2763;DHT22;1389;51.490;7.338;2023-08-30T09:27:39;19.30;70.80
2763;DHT22;1389;51.490;7.338;2023-08-30T09:30:26;19.30;70.80
2763;DHT22;1389;51.490;7.338;2023-08-30T09:32:53;19.40;71.40
2763;DHT22;1389;51.490;7.338;2023-08-30T09:35:19;19.40;71.10
2763;DHT22;1389;51.490;7.338;2023-08-30T09:37:45;19.50;71.90
2763;DHT22;1389;51.490;7.338;2023-08-30T09:40:12;19.50;69.90
2763;DHT22;1389;51.490;7.338;2023-08-30T09:42:41;19.40;72.10
2763;DHT22;1389;51.490;7.338;2023-08-30T09:45:23;19.20;71.00
2763;DHT22;1389;51.490;7.338;2023-08-30T09:47:50;19.10;71.30
2763;DHT22;1389;51.490;7.338;2023-08-30T09:50:20;19.20;72.50
2763;DHT22;1389;51.490;7.338;2023-08-30T09:52:47;19.20;72.00
2763;DHT22;1389;51.490;7.338;2023-08-30T09:55:18;19.30;72.20
2763;DHT22;1389;51.490;7.338;2023-08-30T09:57:45;19.50;70.10
2763;DHT22;1389;51.490;7.338;2023-08-30T10:00:12;19.50;70.50
2763;DHT22;1389;51.490;7.338;2023-08-30T10:02:41;19.70;73.20
2763;DHT22;1389;51.490;7.338;2023-08-30T10:05:12;19.70;70.70
2763;DHT22;1389;51.490;7.338;2023-08-30T10:07:39;19.70;69.90
2763;DHT22;1389;51.490;7.338;2023-08-30T10:10:05;19.40;71.10
2763;DHT22;1389;51.490;7.338;2023-08-30T10:12:32;19.30;73.10
2763;DHT22;1389;51.490;7.338;2023-08-30T10:14:59;19.20;73.30
2763;DHT22;1389;51.490;7.338;2023-08-30T10:17:31;19.30;73.20
2763;DHT22;1389;51.490;7.338;2023-08-30T10:19:59;19.10;72.30
2763;DHT22;1389;51.490;7.338;2023-08-30T10:22:27;19.00;72.90
2763;DHT22;1389;51.490;7.338;2023-08-30T10:25:02;18.90;73.00
2763;DHT22;1389;51.490;7.338;2023-08-30T10:27:34;18.50;74.90
2763;DHT22;1389;51.490;7.338;2023-08-30T10:30:02;18.30;75.90
2763;DHT22;1389;51.490;7.338;2023-08-30T10:32:30;18.10;77.90
2763;DHT22;1389;51.490;7.338;2023-08-30T10:35:01;17.80;80.40
2763;DHT22;1389;51.490;7.338;2023-08-30T10:37:30;17.40;83.70
2763;DHT22;1389;51.490;7.338;2023-08-30T10:40:00;17.40;84.50
2763;DHT22;1389;51.490;7.338;2023-08-30T10:42:29;17.30;85.60
2763;DHT22;1389;51.490;7.338;2023-08-30T10:45:09;17.30;87.00
2763;DHT22;1389;51.490;7.338;2023-08-30T10:47:36;17.30;87.40
2763;DHT22;1389;51.490;7.338;2023-08-30T10:50:08;17.20;87.70
2763;DHT22;1389;51.490;7.338;2023-08-30T10:52:34;17.20;87.80
2763;DHT22;1389;51.490;7.338;2023-08-30T10:55:05;17.10;88.00
2763;DHT22;1389;51.490;7.338;2023-08-30T10:57:33;17.00;87.50
2763;DHT22;1389;51.490;7.338;2023-08-30T11:00:11;16.90;89.30
2763;DHT22;1389;51.490;7.338;2023-08-30T11:02:50;16.90;89.90
2763;DHT22;1389;51.490;7.338;2023-08-30T11:05:21;16.80;89.70
2763;DHT22;1389;51.490;7.338;2023-08-30T11:07:48;16.80;91.30
2763;DHT22;1389;51.490;7.338;2023-08-30T11:10:16;16.70;91.70
2763;DHT22;1389;51.490;7.338;2023-08-30T11:12:43;16.50;92.50
2763;DHT22;1389;51.490;7.338;2023-08-30T11:15:11;16.40;93.10
2763;DHT22;1389;51.490;7.338;2023-08-30T11:17:37;16.30;93.50
2763;DHT22;1389;51.490;7.338;2023-08-30T11:20:11;16.30;94.80
2763;DHT22;1389;51.490;7.338;2023-08-30T11:22:41;16.10;94.60
2763;DHT22;1389;51.490;7.338;2023-08-30T11:25:09;16.20;96.00
2763;DHT22;1389;51.490;7.338;2023-08-30T11:27:36;16.20;96.50
2763;DHT22;1389;51.490;7.338;2023-08-30T11:30:03;16.20;96.70
2763;DHT22;1389;51.490;7.338;2023-08-30T11:32:41;16.20;96.90
2763;DHT22;1389;51.490;7.338;2023-08-30T11:35:11;16.20;97.10
2763;DHT22;1389;51.490;7.338;2023-08-30T11:37:37;16.10;97.10
2763;DHT22;1389;51.490;7.338;2023-08-30T11:40:04;16.00;97.70
2763;DHT22;1389;51.490;7.338;2023-08-30T11:42:32;16.00;97.90
2763;DHT22;1389;51.490;7.338;2023-08-30T11:44:58;16.00;97.80
2763;DHT22;1389;51.490;7.338;2023-08-30T11:47:26;16.00;97.50
2763;DHT22;1389;51.490;7.338;2023-08-30T11:49:54;16.00;98.30
2763;DHT22;1389;51.490;7.338;2023-08-30T11:52:21;16.10;98.20
2763;DHT22;1389;51.490;7.338;2023-08-30T11:59:42;16.30;98.20
2763;DHT22;1389;51.490;7.338;2023-08-30T12:02:12;16.10;98.60
2763;DHT22;1389;51.490;7.338;2023-08-30T12:04:40;16.10;98.80
2763;DHT22;1389;51.490;7.338;2023-08-30T12:07:07;16.00;98.90
2763;DHT22;1389;51.490;7.338;2023-08-30T12:09:35;15.90;99.10
2763;DHT22;1389;51.490;7.338;2023-08-30T12:12:06;15.80;99.30
2763;DHT22;1389;51.490;7.338;2023-08-30T12:14:35;15.90;99.30
2763;DHT22;1389;51.490;7.338;2023-08-30T12:17:01;15.80;99.30
2763;DHT22;1389;51.490;7.338;2023-08-30T12:19:29;15.60;99.30
2763;DHT22;1389;51.490;7.338;2023-08-30T12:22:07;15.40;99.30
2763;DHT22;1389;51.490;7.338;2023-08-30T12:27:39;15.40;99.30
2763;DHT22;1389;51.490;7.338;2023-08-30T12:30:06;15.40;99.30
2763;DHT22;1389;51.490;7.338;2023-08-30T12:32:32;15.40;99.30
2763;DHT22;1389;51.490;7.338;2023-08-30T12:34:58;15.40;99.30
2763;DHT22;1389;51.490;7.338;2023-08-30T12:37:24;15.40;99.30
2763;DHT22;1389;51.490;7.338;2023-08-30T12:39:50;15.40;99.30
2763;DHT22;1389;51.490;7.338;2023-08-30T12:42:16;15.40;99.30
2763;DHT22;1389;51.490;7.338;2023-08-30T12:44:42;15.40;99.30
2763;DHT22;1389;51.490;7.338;2023-08-30T12:47:09;15.40;99.30
2763;DHT22;1389;51.490;7.338;2023-08-30T12:49:35;15.40;99.30
2763;DHT22;1389;51.490;7.338;2023-08-30T12:54:27;15.40;99.30
2763;DHT22;1389;51.490;7.338;2023-08-30T12:59:19;15.50;99.30
2763;DHT22;1389;51.490;7.338;2023-08-30T13:01:45;15.60;99.30
2763;DHT22;1389;51.490;7.338;2023-08-30T13:04:12;15.80;99.30
2763;DHT22;1389;51.490;7.338;2023-08-30T13:06:38;15.80;99.30
2763;DHT22;1389;51.490;7.338;2023-08-30T13:09:04;16.00;99.30
2763;DHT22;1389;51.490;7.338;2023-08-30T13:11:30;16.00;99.30
2763;DHT22;1389;51.490;7.338;2023-08-30T13:13:58;16.10;99.30
2763;DHT22;1389;51.490;7.338;2023-08-30T13:16:24;16.10;99.30
2763;DHT22;1389;51.490;7.338;2023-08-30T13:18:50;16.10;99.30
2763;DHT22;1389;51.490;7.338;2023-08-30T13:21:16;16.00;99.30
2763;DHT22;1389;51.490;7.338;2023-08-30T13:23:42;16.10;99.30
2763;DHT22;1389;51.490;7.338;2023-08-30T13:26:08;16.10;99.30
2763;DHT22;1389;51.490;7.338;2023-08-30T13:28:35;16.10;99.30
2763;DHT22;1389;51.490;7.338;2023-08-30T13:31:01;16.20;99.30
2763;DHT22;1389;51.490;7.338;2023-08-30T13:33:27;16.20;99.30
2763;DHT22;1389;51.490;7.338;2023-08-30T13:35:53;16.10;99.30
2763;DHT22;1389;51.490;7.338;2023-08-30T13:38:19;16.10;99.30
2763;DHT22;1389;51.490;7.338;2023-08-30T13:40:46;16.00;99.30
2763;DHT22;1389;51.490;7.338;2023-08-30T13:43:12;15.90;99.30
2763;DHT22;1389;51.490;7.338;2023-08-30T13:45:38;15.90;99.30
2763;DHT22;1389;51.490;7.338;2023-08-30T13:48:04;15.70;99.30
2763;DHT22;1389;51.490;7.338;2023-08-30T13:52:58;15.70;99.30
2763;DHT22;1389;51.490;7.338;2023-08-30T13:55:24;15.60;99.30
2763;DHT22;1389;51.490;7.338;2023-08-30T13:57:50;15.60;99.30
2763;DHT22;1389;51.490;7.338;2023-08-30T14:00:17;15.60;99.30
2763;DHT22;1389;51.490;7.338;2023-08-30T14:02:43;15.60;99.30
2763;DHT22;1389;51.490;7.338;2023-08-30T14:05:09;15.60;99.30
2763;DHT22;1389;51.490;7.338;2023-08-30T14:07:35;15.70;99.30
2763;DHT22;1389;51.490;7.338;2023-08-30T14:10:01;15.70;99.30
2763;DHT22;1389;51.490;7.338;2023-08-30T14:12:27;15.80;99.30
2763;DHT22;1389;51.490;7.338;2023-08-30T14:14:53;15.90;99.30
2763;DHT22;1389;51.490;7.338;2023-08-30T14:17:19;15.90;99.30
2763;DHT22;1389;51.490;7.338;2023-08-30T14:19:45;15.90;99.30
2763;DHT22;1389;51.490;7.338;2023-08-30T14:22:11;15.80;99.30
2763;DHT22;1389;51.490;7.338;2023-08-30T14:24:38;15.80;99.30
2763;DHT22;1389;51.490;7.338;2023-08-30T14:27:04;15.80;99.30
2763;DHT22;1389;51.490;7.338;2023-08-30T14:36:49;15.60;99.30
2763;DHT22;1389;51.490;7.338;2023-08-30T14:41:41;15.60;99.30
2763;DHT22;1389;51.490;7.338;2023-08-30T14:44:08;15.60;99.30
2763;DHT22;1389;51.490;7.338;2023-08-30T14:46:34;15.60;99.30
2763;DHT22;1389;51.490;7.338;2023-08-30T14:49:00;15.60;99.30
2763;DHT22;1389;51.490;7.338;2023-08-30T14:51:26;15.70;99.30
2763;DHT22;1389;51.490;7.338;2023-08-30T14:53:52;15.70;99.30
2763;DHT22;1389;51.490;7.338;2023-08-30T14:56:18;15.70;99.30
2763;DHT22;1389;51.490;7.338;2023-08-30T14:58:44;15.60;99.30
2763;DHT22;1389;51.490;7.338;2023-08-30T15:01:15;15.50;99.30
2763;DHT22;1389;51.490;7.338;2023-08-30T15:03:42;15.50;99.30
2763;DHT22;1389;51.490;7.338;2023-08-30T15:06:08;15.50;99.30
2763;DHT22;1389;51.490;7.338;2023-08-30T15:08:35;15.40;99.30
2763;DHT22;1389;51.490;7.338;2023-08-30T15:11:01;15.40;99.30
2763;DHT22;1389;51.490;7.338;2023-08-30T15:13:28;15.40;99.30
2763;DHT22;1389;51.490;7.338;2023-08-30T15:15:55;15.40;99.30
2763;DHT22;1389;51.490;7.338;2023-08-30T15:18:21;15.40;99.30
2763;DHT22;1389;51.490;7.338;2023-08-30T15:20:47;15.40;99.30
2763;DHT22;1389;51.490;7.338;2023-08-30T15:23:14;15.40;99.30
2763;DHT22;1389;51.490;7.338;2023-08-30T15:25:47;15.40;99.30
2763;DHT22;1389;51.490;7.338;2023-08-30T15:28:15;15.40;99.30
2763;DHT22;1389;51.490;7.338;2023-08-30T15:30:42;15.50;99.30
2763;DHT22;1389;51.490;7.338;2023-08-30T15:33:09;15.40;99.30
2763;DHT22;1389;51.490;7.338;2023-08-30T15:35:39;15.40;99.30
2763;DHT22;1389;51.490;7.338;2023-08-30T15:38:09;15.30;99.30
2763;DHT22;1389;51.490;7.338;2023-08-30T15:40:36;15.30;99.30
2763;DHT22;1389;51.490;7.338;2023-08-30T15:43:03;15.30;99.30
2763;DHT22;1389;51.490;7.338;2023-08-30T15:45:30;15.30;99.30
2763;DHT22;1389;51.490;7.338;2023-08-30T15:47:56;15.40;99.30
2763;DHT22;1389;51.490;7.338;2023-08-30T15:52:48;15.40;99.30
2763;DHT22;1389;51.490;7.338;2023-08-30T15:55:15;15.30;99.30
2763;DHT22;1389;51.490;7.338;2023-08-30T15:57:41;15.30;99.30
2763;DHT22;1389;51.490;7.338;2023-08-30T16:00:07;15.30;99.30
2763;DHT22;1389;51.490;7.338;2023-08-30T16:02:34;15.40;99.30
2763;DHT22;1389;51.490;7.338;2023-08-30T16:05:00;15.40;99.30
2763;DHT22;1389;51.490;7.338;2023-08-30T16:07:26;15.40;99.30
2763;DHT22;1389;51.490;7.338;2023-08-30T16:09:52;15.40;99.30
2763;DHT22;1389;51.490;7.338;2023-08-30T16:12:18;15.50;99.30
2763;DHT22;1389;51.490;7.338;2023-08-30T16:14:44;15.50;99.30
2763;DHT22;1389;51.490;7.338;2023-08-30T16:17:10;15.60;99.30
2763;DHT22;1389;51.490;7.338;2023-08-30T16:19:36;15.60;99.30
2763;DHT22;1389;51.490;7.338;2023-08-30T16:22:02;15.70;99.30
2763;DHT22;1389;51.490;7.338;2023-08-30T16:26:56;15.90;99.30
2763;DHT22;1389;51.490;7.338;2023-08-30T16:29:23;16.10;99.30
2763;DHT22;1389;51.490;7.338;2023-08-30T16:31:49;16.10;99.30
2763;DHT22;1389;51.490;7.338;2023-08-30T16:34:21;16.00;99.30
2763;DHT22;1389;51.490;7.338;2023-08-30T16:36:48;15.90;99.30
2763;DHT22;1389;51.490;7.338;2023-08-30T16:39:17;15.70;99.30
2763;DHT22;1389;51.490;7.338;2023-08-30T16:41:44;15.70;99.30
2763;DHT22;1389;51.490;7.338;2023-08-30T16:44:11;15.70;99.30
2763;DHT22;1389;51.490;7.338;2023-08-30T16:46:38;15.70;99.30
2763;DHT22;1389;51.490;7.338;2023-08-30T16:49:05;15.70;99.30
2763;DHT22;1389;51.490;7.338;2023-08-30T16:51:32;15.70;99.30
2763;DHT22;1389;51.490;7.338;2023-08-30T16:53:58;15.70;99.30
2763;DHT22;1389;51.490;7.338;2023-08-30T16:56:24;15.60;99.30
2763;DHT22;1389;51.490;7.338;2023-08-30T16:58:50;15.60;99.30
2763;DHT22;1389;51.490;7.338;2023-08-30T17:01:16;15.60;99.30
2763;DHT22;1389;51.490;7.338;2023-08-30T17:03:42;15.70;99.30
2763;DHT22;1389;51.490;7.338;2023-08-30T17:06:09;15.60;99.30
2763;DHT22;1389;51.490;7.338;2023-08-30T17:08:35;15.50;99.30
2763;DHT22;1389;51.490;7.338;2023-08-30T17:11:03;15.20;99.30
2763;DHT22;1389;51.490;7.338;2023-08-30T17:13:30;15.20;99.30
2763;DHT22;1389;51.490;7.338;2023-08-30T17:15:56;15.30;99.30
2763;DHT22;1389;51.490;7.338;2023-08-30T17:18:23;15.40;99.30
2763;DHT22;1389;51.490;7.338;2023-08-30T17:20:50;15.50;99.30
2763;DHT22;1389;51.490;7.338;2023-08-30T17:23:16;15.50;99.30
2763;DHT22;1389;51.490;7.338;2023-08-30T17:25:42;15.60;99.30
2763;DHT22;1389;51.490;7.338;2023-08-30T17:30:35;15.50;99.30
2763;DHT22;1389;51.490;7.338;2023-08-30T17:33:01;15.50;99.30
2763;DHT22;1389;51.490;7.338;2023-08-30T17:35:27;15.50;99.30
2763;DHT22;1389;51.490;7.338;2023-08-30T17:37:55;15.40;99.30
2763;DHT22;1389;51.490;7.338;2023-08-30T17:40:21;15.40;99.30
2763;DHT22;1389;51.490;7.338;2023-08-30T17:42:47;15.40;99.30
2763;DHT22;1389;51.490;7.338;2023-08-30T17:45:13;15.30;99.30
2763;DHT22;1389;51.490;7.338;2023-08-30T17:47:39;15.30;99.30
2763;DHT22;1389;51.490;7.338;2023-08-30T17:50:06;15.30;99.30
2763;DHT22;1389;51.490;7.338;2023-08-30T17:52:32;15.30;99.30
2763;DHT22;1389;51.490;7.338;2023-08-30T17:54:58;15.30;99.30
2763;DHT22;1389;51.490;7.338;2023-08-30T17:57:24;15.40;99.30
2763;DHT22;1389;51.490;7.338;2023-08-30T17:59:50;15.40;99.30
2763;DHT22;1389;51.490;7.338;2023-08-30T18:02:16;15.30;99.30
2763;DHT22;1389;51.490;7.338;2023-08-30T18:04:42;15.30;99.30
2763;DHT22;1389;51.490;7.338;2023-08-30T18:07:08;15.30;99.30
2763;DHT22;1389;51.490;7.338;2023-08-30T18:12:01;15.30;99.30
2763;DHT22;1389;51.490;7.338;2023-08-30T18:14:29;15.30;99.30
2763;DHT22;1389;51.490;7.338;2023-08-30T18:16:55;15.30;99.30